Time;durP1;ratioP1;P1;durP2;ratioP2;P2;SDS_P1;SDS_P2;PMS_P1;PMS_P2;Temp;Humidity;BMP_temperature;BMP_pressure;BME280_temperature;BME280_humidity;BME280_pressure;Samples;Min_cycle;Max_cycle;Signal;HPM_P1;HPM_P2
2022/10/05 00:02:23;;;;;;;3.72;2.63;;;;;;;;;;5034279;28;20388;-83
2022/10/05 00:04:52;;;;;;;3.95;2.80;;;;;;;;;;5017646;28;20495;-83
2022/10/05 00:07:21;;;;;;;4.15;2.58;;;;;;;;;;5034465;28;20060;-82
2022/10/05 00:09:58;;;;;;;3.90;2.63;;;;;;;;;;5034651;28;20049;-82
2022/10/05 00:12:25;;;;;;;3.58;2.60;;;;;;;;;;5034704;28;20109;-82
2022/10/05 00:14:54;;;;;;;3.85;2.75;;;;;;;;;;5035256;28;20060;-82
2022/10/05 00:17:27;;;;;;;2.95;2.45;;;;;;;;;;5033967;28;20083;-83
2022/10/05 00:19:53;;;;;;;4.50;2.80;;;;;;;;;;5034119;28;20136;-83
2022/10/05 00:22:19;;;;;;;3.00;2.70;;;;;;;;;;5033909;28;20073;-83
2022/10/05 00:24:46;;;;;;;4.25;2.92;;;;;;;;;;5017186;28;20052;-83
2022/10/05 00:27:24;;;;;;;3.33;2.75;;;;;;;;;;5033735;28;20113;-82
2022/10/05 00:29:51;;;;;;;3.60;2.60;;;;;;;;;;5033547;28;20061;-82
2022/10/05 00:32:17;;;;;;;3.30;2.53;;;;;;;;;;5017593;28;20112;-82
2022/10/05 00:34:43;;;;;;;3.83;2.67;;;;;;;;;;5017615;28;20472;-85
2022/10/05 00:37:09;;;;;;;3.45;2.90;;;;;;;;;;5017076;28;20079;-84
2022/10/05 00:39:36;;;;;;;4.28;3.28;;;;;;;;;;5033559;28;20410;-84
2022/10/05 00:42:22;;;;;;;4.28;2.63;;;;;;;;;;5033355;28;20021;-84
2022/10/05 00:44:53;;;;;;;3.47;2.50;;;;;;;;;;5033273;28;20025;-84
2022/10/05 00:47:27;;;;;;;4.32;2.90;;;;;;;;;;5016848;28;20030;-84
2022/10/05 00:50:12;;;;;;;3.33;2.60;;;;;;;;;;5034770;28;20037;-84
2022/10/05 00:52:48;;;;;;;4.50;2.65;;;;;;;;;;5033319;28;20468;-84
2022/10/05 00:55:23;;;;;;;3.92;2.90;;;;;;;;;;5033502;28;20021;-84
2022/10/05 00:58:21;;;;;;;3.72;2.35;;;;;;;;;;5033233;28;20026;-84
2022/10/05 01:01:14;;;;;;;3.88;2.63;;;;;;;;;;5033443;28;20021;-84
2022/10/05 01:04:11;;;;;;;3.85;2.60;;;;;;;;;;5016311;28;20104;-85
2022/10/05 01:07:11;;;;;;;4.35;2.80;;;;;;;;;;5017280;28;20021;-84
2022/10/05 01:09:55;;;;;;;3.45;2.45;;;;;;;;;;5032897;28;20029;-84
2022/10/05 01:12:47;;;;;;;3.35;2.60;;;;;;;;;;5034121;28;20383;-83
2022/10/05 01:15:28;;;;;;;3.10;2.80;;;;;;;;;;4998191;28;20095;-82
2022/10/05 01:17:58;;;;;;;4.25;2.78;;;;;;;;;;5033962;28;20100;-82
2022/10/05 01:20:45;;;;;;;4.20;2.50;;;;;;;;;;5016274;28;20029;-82
2022/10/05 01:23:35;;;;;;;4.88;2.78;;;;;;;;;;5033830;28;20025;-82
2022/10/05 01:26:21;;;;;;;5.72;2.75;;;;;;;;;;5016160;28;20483;-82
2022/10/05 01:28:59;;;;;;;6.15;2.92;;;;;;;;;;5032584;28;20035;-82
2022/10/05 01:31:37;;;;;;;3.55;2.78;;;;;;;;;;5032467;28;20108;-82
2022/10/05 01:34:12;;;;;;;3.00;2.35;;;;;;;;;;5016220;28;20026;-82
2022/10/05 01:37:07;;;;;;;5.63;2.75;;;;;;;;;;5015903;28;20072;-82
2022/10/05 01:39:55;;;;;;;4.18;3.08;;;;;;;;;;5024430;28;20042;-82
2022/10/05 01:42:21;;;;;;;5.03;2.90;;;;;;;;;;5031998;28;20049;-82
2022/10/05 01:44:58;;;;;;;4.88;2.55;;;;;;;;;;5032184;28;20503;-82
2022/10/05 01:47:33;;;;;;;4.30;2.53;;;;;;;;;;5033774;28;20037;-83
2022/10/05 01:50:03;;;;;;;4.85;2.85;;;;;;;;;;5032263;28;20119;-82
2022/10/05 01:52:31;;;;;;;4.03;2.35;;;;;;;;;;5048725;28;20029;-83
2022/10/05 01:55:28;;;;;;;4.22;2.80;;;;;;;;;;5033666;28;20052;-82
2022/10/05 01:58:19;;;;;;;3.15;2.35;;;;;;;;;;5015604;28;20029;-82
2022/10/05 02:00:49;;;;;;;3.22;2.42;;;;;;;;;;5032006;28;20110;-83
2022/10/05 02:03:19;;;;;;;3.47;2.78;;;;;;;;;;5033457;28;20029;-82
2022/10/05 02:05:52;;;;;;;7.05;2.70;;;;;;;;;;5015527;28;20506;-82
2022/10/05 02:08:40;;;;;;;4.65;2.92;;;;;;;;;;5032083;28;20112;-83
2022/10/05 02:11:11;;;;;;;3.13;2.55;;;;;;;;;;5031958;28;20025;-83
2022/10/05 02:13:43;;;;;;;5.22;2.78;;;;;;;;;;5014717;28;20045;-83
2022/10/05 02:16:39;;;;;;;4.20;2.88;;;;;;;;;;5031890;28;20159;-83
2022/10/05 02:19:13;;;;;;;4.50;2.78;;;;;;;;;;5032838;28;20045;-82
2022/10/05 02:21:39;;;;;;;4.63;2.88;;;;;;;;;;5032004;28;20029;-82
2022/10/05 02:24:11;;;;;;;4.13;2.90;;;;;;;;;;5032935;28;20053;-82
2022/10/05 02:26:38;;;;;;;4.10;2.80;;;;;;;;;;5015331;28;20029;-82
2022/10/05 02:29:08;;;;;;;4.70;2.90;;;;;;;;;;5031915;28;20025;-82
2022/10/05 02:31:45;;;;;;;3.80;2.70;;;;;;;;;;5031680;28;20021;-82
2022/10/05 02:34:20;;;;;;;3.55;2.78;;;;;;;;;;5033224;28;20066;-82
2022/10/05 02:36:52;;;;;;;4.20;2.67;;;;;;;;;;5031610;28;20022;-83
2022/10/05 02:39:56;;;;;;;3.33;2.58;;;;;;;;;;5015141;28;20391;-83
2022/10/05 02:42:33;;;;;;;4.07;2.67;;;;;;;;;;5031807;28;20077;-83
2022/10/05 02:45:22;;;;;;;3.95;2.97;;;;;;;;;;5031599;28;20029;-83
2022/10/05 02:47:50;;;;;;;4.10;2.85;;;;;;;;;;5015043;28;20472;-83
2022/10/05 02:50:25;;;;;;;4.13;2.85;;;;;;;;;;5032992;28;20121;-83
2022/10/05 02:53:04;;;;;;;4.80;2.88;;;;;;;;;;5015163;28;20033;-83
2022/10/05 02:55:32;;;;;;;4.10;3.00;;;;;;;;;;5014977;28;20025;-83
2022/10/05 02:58:14;;;;;;;4.65;2.78;;;;;;;;;;5015239;28;20057;-83
2022/10/05 03:00:59;;;;;;;4.10;2.65;;;;;;;;;;5014935;28;20367;-83
2022/10/05 03:03:36;;;;;;;3.78;2.88;;;;;;;;;;5031357;28;20049;-83
2022/10/05 03:06:04;;;;;;;3.70;2.67;;;;;;;;;;5031405;28;20372;-84
2022/10/05 03:08:57;;;;;;;4.82;2.97;;;;;;;;;;5014804;28;20029;-83
2022/10/05 03:11:56;;;;;;;3.50;2.78;;;;;;;;;;5031463;28;20515;-83
2022/10/05 03:14:47;;;;;;;2.90;2.50;;;;;;;;;;5032843;28;20037;-83
2022/10/05 03:17:19;;;;;;;4.22;2.60;;;;;;;;;;5031299;28;20021;-83
2022/10/05 03:19:58;;;;;;;3.13;2.78;;;;;;;;;;5031565;28;20376;-83
2022/10/05 03:22:26;;;;;;;3.65;2.65;;;;;;;;;;5014807;28;20040;-83
2022/10/05 03:24:55;;;;;;;3.72;2.97;;;;;;;;;;5033179;28;20021;-83
2022/10/05 03:27:39;;;;;;;3.58;2.53;;;;;;;;;;5036129;28;20029;-83
2022/10/05 03:30:18;;;;;;;4.22;3.00;;;;;;;;;;5036076;28;20025;-82
2022/10/05 03:33:08;;;;;;;3.60;3.10;;;;;;;;;;5018206;28;20554;-82
2022/10/05 03:35:48;;;;;;;3.38;2.53;;;;;;;;;;5036221;28;20030;-82
2022/10/05 03:38:43;;;;;;;4.55;2.85;;;;;;;;;;5036151;28;20079;-82
2022/10/05 03:41:14;;;;;;;3.80;2.80;;;;;;;;;;5018005;28;20022;-82
2022/10/05 03:44:17;;;;;;;3.28;2.50;;;;;;;;;;5035530;28;20046;-82
2022/10/05 03:47:06;;;;;;;4.70;2.60;;;;;;;;;;5034480;28;20029;-82
2022/10/05 03:49:44;;;;;;;3.85;2.95;;;;;;;;;;5034312;28;20340;-82
2022/10/05 03:52:17;;;;;;;3.20;2.67;;;;;;;;;;5018123;28;20088;-82
2022/10/05 03:54:49;;;;;;;4.03;2.85;;;;;;;;;;5034407;28;20052;-83
2022/10/05 03:57:23;;;;;;;5.15;2.83;;;;;;;;;;5034342;28;20025;-81
2022/10/05 04:00:14;;;;;;;4.45;2.70;;;;;;;;;;5034303;28;20396;-81
2022/10/05 04:02:44;;;;;;;4.00;2.83;;;;;;;;;;5018286;28;20025;-81
2022/10/05 04:05:09;;;;;;;5.80;3.00;;;;;;;;;;5034152;28;20024;-81
2022/10/05 04:08:20;;;;;;;4.15;2.70;;;;;;;;;;5035598;28;20026;-81
2022/10/05 04:10:48;;;;;;;3.55;2.78;;;;;;;;;;5035229;28;20083;-81
2022/10/05 04:13:33;;;;;;;4.07;2.90;;;;;;;;;;5033944;28;20025;-81
2022/10/05 04:16:04;;;;;;;3.25;2.60;;;;;;;;;;5035716;28;20021;-81
2022/10/05 04:18:36;;;;;;;3.13;2.80;;;;;;;;;;5017362;28;20021;-81
2022/10/05 04:21:27;;;;;;;3.78;2.70;;;;;;;;;;5033905;28;20061;-81
2022/10/05 04:24:03;;;;;;;4.78;3.20;;;;;;;;;;5033764;28;20124;-82
2022/10/05 04:26:48;;;;;;;5.20;2.70;;;;;;;;;;5033950;28;20028;-83
2022/10/05 04:29:24;;;;;;;3.45;2.95;;;;;;;;;;5017551;28;20029;-82
2022/10/05 04:32:30;;;;;;;5.00;2.83;;;;;;;;;;5033751;28;20155;-81
2022/10/05 04:35:43;;;;;;;3.83;2.47;;;;;;;;;;5020049;28;20040;-82
2022/10/05 04:38:14;;;;;;;3.88;2.85;;;;;;;;;;5032656;28;20073;-80
2022/10/05 04:41:00;;;;;;;4.97;2.90;;;;;;;;;;5034119;28;20033;-82
2022/10/05 04:43:49;;;;;;;9.15;3.88;;;;;;;;;;5033731;28;20048;-80
2022/10/05 04:46:40;;;;;;;9.63;3.55;;;;;;;;;;5033797;28;20060;-80
2022/10/05 04:49:54;;;;;;;8.48;3.13;;;;;;;;;;5035208;28;20026;-80
2022/10/05 04:52:40;;;;;;;7.15;3.38;;;;;;;;;;4999936;28;20056;-80
2022/10/05 04:55:29;;;;;;;9.27;3.25;;;;;;;;;;5016555;28;20029;-80
2022/10/05 04:58:27;;;;;;;6.50;3.22;;;;;;;;;;5030431;28;20120;-80
2022/10/05 05:01:40;;;;;;;8.75;3.50;;;;;;;;;;5034729;28;20468;-82
2022/10/05 05:04:43;;;;;;;7.10;3.17;;;;;;;;;;5032573;28;20040;-85
2022/10/05 05:07:27;;;;;;;7.65;3.35;;;;;;;;;;5015995;28;20025;-79
2022/10/05 05:10:17;;;;;;;7.00;3.55;;;;;;;;;;4999559;28;20057;-78
2022/10/05 05:13:00;;;;;;;7.50;3.63;;;;;;;;;;5032563;28;20480;-79
2022/10/05 05:15:31;;;;;;;8.38;3.47;;;;;;;;;;5032743;28;20535;-79
2022/10/05 05:18:34;;;;;;;5.93;3.13;;;;;;;;;;5033194;28;20187;-78
2022/10/05 05:21:11;;;;;;;12.43;3.28;;;;;;;;;;5035863;28;20041;-79
2022/10/05 05:23:58;;;;;;;6.53;3.42;;;;;;;;;;5018665;28;20029;-79
2022/10/05 05:26:56;;;;;;;8.85;3.22;;;;;;;;;;5018852;28;20033;-79
2022/10/05 05:29:43;;;;;;;9.43;2.70;;;;;;;;;;5017901;28;20053;-80
2022/10/05 05:32:16;;;;;;;8.70;3.10;;;;;;;;;;5032193;28;20492;-80
2022/10/05 05:34:57;;;;;;;4.05;2.63;;;;;;;;;;5033975;28;20030;-79
2022/10/05 05:37:38;;;;;;;5.30;2.58;;;;;;;;;;5001889;28;20040;-80
2022/10/05 05:40:17;;;;;;;5.65;2.90;;;;;;;;;;5015678;28;20522;-80
2022/10/05 05:42:58;;;;;;;7.80;2.58;;;;;;;;;;5031673;28;20041;-80
2022/10/05 05:45:35;;;;;;;2.60;2.38;;;;;;;;;;5032870;28;20029;-79
2022/10/05 05:48:08;;;;;;;5.68;2.60;;;;;;;;;;5033341;28;20480;-79
2022/10/05 05:50:47;;;;;;;4.53;2.45;;;;;;;;;;5015161;28;20041;-79
2022/10/05 05:53:25;;;;;;;6.18;2.47;;;;;;;;;;5015895;28;20026;-80
2022/10/05 05:55:54;;;;;;;4.93;2.60;;;;;;;;;;5033551;28;20025;-79
2022/10/05 05:58:21;;;;;;;5.00;2.30;;;;;;;;;;5032356;28;20032;-80
2022/10/05 06:00:56;;;;;;;7.18;2.33;;;;;;;;;;5014204;28;20116;-79
2022/10/05 06:03:26;;;;;;;3.17;2.40;;;;;;;;;;5012340;28;20109;-79
2022/10/05 06:05:54;;;;;;;6.03;2.20;;;;;;;;;;4995284;28;20041;-79
2022/10/05 06:08:40;;;;;;;6.43;2.20;;;;;;;;;;5012225;28;20512;-78
2022/10/05 06:11:13;;;;;;;4.35;2.20;;;;;;;;;;4995984;28;20432;-78
2022/10/05 06:13:40;;;;;;;3.45;2.13;;;;;;;;;;5012962;28;20018;-78
2022/10/05 06:16:11;;;;;;;3.70;2.28;;;;;;;;;;4995904;28;20041;-78
2022/10/05 06:18:39;;;;;;;4.90;2.40;;;;;;;;;;5014098;28;20092;-78
2022/10/05 06:21:23;;;;;;;3.55;2.38;;;;;;;;;;5018952;28;20116;-78
2022/10/05 06:24:19;;;;;;;2.42;2.22;;;;;;;;;;5027841;28;20026;-78
2022/10/05 06:27:08;;;;;;;5.18;2.28;;;;;;;;;;5009706;28;20095;-78
2022/10/05 06:29:42;;;;;;;4.78;2.35;;;;;;;;;;5013118;28;20068;-77
2022/10/05 06:32:31;;;;;;;3.65;2.47;;;;;;;;;;5013644;28;20129;-78
2022/10/05 06:35:10;;;;;;;3.38;2.17;;;;;;;;;;5012095;28;20030;-77
2022/10/05 06:37:48;;;;;;;9.95;2.63;;;;;;;;;;5012071;28;20025;-78
2022/10/05 06:40:26;;;;;;;4.65;2.47;;;;;;;;;;5013208;28;20475;-78
2022/10/05 06:43:34;;;;;;;4.25;2.50;;;;;;;;;;5013134;28;20046;-78
2022/10/05 06:46:11;;;;;;;3.65;2.00;;;;;;;;;;4994919;28;20026;-78
2022/10/05 06:48:42;;;;;;;4.80;2.35;;;;;;;;;;5010691;28;20057;-78
2022/10/05 06:51:29;;;;;;;16.15;2.50;;;;;;;;;;4994981;28;20148;-77
2022/10/05 06:54:11;;;;;;;6.05;2.78;;;;;;;;;;5011264;28;20034;-78
2022/10/05 06:56:44;;;;;;;6.63;2.30;;;;;;;;;;4995059;28;20030;-78
2022/10/05 06:59:42;;;;;;;5.50;2.80;;;;;;;;;;4994832;28;20097;-78
2022/10/05 07:02:17;;;;;;;7.45;2.50;;;;;;;;;;5015182;28;20026;-78
2022/10/05 07:05:02;;;;;;;4.80;2.55;;;;;;;;;;4998491;28;20030;-78
2022/10/05 07:07:37;;;;;;;3.92;2.58;;;;;;;;;;4998440;28;20042;-78
2022/10/05 07:10:06;;;;;;;5.93;2.40;;;;;;;;;;4998372;28;20056;-78
2022/10/05 07:12:56;;;;;;;4.65;2.40;;;;;;;;;;5014792;28;20109;-78
2022/10/05 07:15:32;;;;;;;5.28;2.63;;;;;;;;;;5014761;28;20030;-78
2022/10/05 07:18:15;;;;;;;4.20;2.42;;;;;;;;;;5014663;28;20036;-78
2022/10/05 07:20:46;;;;;;;15.88;2.58;;;;;;;;;;5028656;28;20480;-78
2022/10/05 07:23:28;;;;;;;5.68;2.22;;;;;;;;;;5015356;28;20030;-78
2022/10/05 07:26:04;;;;;;;4.18;2.28;;;;;;;;;;5017001;28;20026;-78
2022/10/05 07:28:46;;;;;;;9.05;2.47;;;;;;;;;;5015525;28;20025;-78
2022/10/05 07:31:17;;;;;;;7.57;2.08;;;;;;;;;;5015756;28;20396;-79
2022/10/05 07:33:52;;;;;;;5.65;2.00;;;;;;;;;;5015427;28;20022;-78
2022/10/05 07:39:36;;;;;;;3.28;2.10;;;;;;;;;;5016735;28;20036;-78
2022/10/05 07:42:17;;;;;;;5.80;2.30;;;;;;;;;;5014958;28;20451;-78
2022/10/05 07:44:47;;;;;;;2.95;2.28;;;;;;;;;;5017102;28;20366;-78
2022/10/05 07:47:30;;;;;;;5.38;1.90;;;;;;;;;;5015182;28;20056;-78
2022/10/05 07:50:31;;;;;;;3.42;2.05;;;;;;;;;;5015100;28;20113;-78
2022/10/05 07:53:02;;;;;;;5.38;2.30;;;;;;;;;;5015042;28;20056;-78
2022/10/05 07:55:36;;;;;;;5.50;2.10;;;;;;;;;;5015585;28;20069;-78
2022/10/05 07:58:28;;;;;;;3.28;2.10;;;;;;;;;;5015217;28;20140;-78
2022/10/05 08:01:04;;;;;;;4.15;1.90;;;;;;;;;;5016018;28;20472;-78
2022/10/05 08:03:59;;;;;;;3.72;2.38;;;;;;;;;;5015968;28;20038;-78
2022/10/05 08:06:36;;;;;;;4.47;2.05;;;;;;;;;;5007047;28;20029;-78
2022/10/05 08:09:08;;;;;;;4.68;2.15;;;;;;;;;;5016182;28;20029;-78
2022/10/05 08:11:47;;;;;;;2.60;2.00;;;;;;;;;;5016121;28;20033;-78
2022/10/05 08:14:32;;;;;;;3.40;1.90;;;;;;;;;;5014703;28;20201;-78
2022/10/05 08:17:02;;;;;;;2.13;1.90;;;;;;;;;;5014766;28;20026;-77
2022/10/05 08:19:39;;;;;;;2.70;1.90;;;;;;;;;;4998094;28;20483;-78
2022/10/05 08:22:09;;;;;;;3.60;1.83;;;;;;;;;;5014164;28;20029;-78
2022/10/05 08:24:39;;;;;;;3.75;1.90;;;;;;;;;;5015632;28;20026;-78
2022/10/05 08:27:16;;;;;;;3.13;1.80;;;;;;;;;;5014408;28;20025;-78
2022/10/05 08:29:54;;;;;;;2.85;1.90;;;;;;;;;;5030326;28;20112;-78
2022/10/05 08:32:45;;;;;;;2.67;2.10;;;;;;;;;;5034247;28;20030;-77
2022/10/05 08:35:26;;;;;;;2.35;1.73;;;;;;;;;;5032916;28;20041;-78
2022/10/05 08:37:52;;;;;;;4.72;2.00;;;;;;;;;;5025871;28;20025;-78
2022/10/05 08:40:17;;;;;;;4.03;2.08;;;;;;;;;;5022568;28;20488;-77
2022/10/05 08:42:49;;;;;;;1.98;1.70;;;;;;;;;;5022990;28;20042;-78
2022/10/05 08:45:29;;;;;;;2.00;1.70;;;;;;;;;;5008415;28;20030;-78
2022/10/05 08:48:13;;;;;;;4.25;1.98;;;;;;;;;;5013983;28;20018;-79
2022/10/05 08:50:57;;;;;;;3.70;1.90;;;;;;;;;;5015454;28;20041;-78
2022/10/05 08:54:00;;;;;;;5.45;2.15;;;;;;;;;;5021735;28;20545;-77
2022/10/05 08:56:29;;;;;;;6.50;3.28;;;;;;;;;;5034818;28;20040;-77
2022/10/05 08:59:32;;;;;;;10.65;2.78;;;;;;;;;;5030741;28;20025;-77
2022/10/05 09:02:16;;;;;;;11.35;2.47;;;;;;;;;;5014579;28;20022;-78
2022/10/05 09:05:02;;;;;;;7.32;2.60;;;;;;;;;;5014536;28;20061;-78
2022/10/05 09:07:49;;;;;;;7.97;3.10;;;;;;;;;;5023662;28;20032;-78
2022/10/05 09:10:39;;;;;;;6.32;2.30;;;;;;;;;;5034452;28;20025;-79
2022/10/05 09:13:22;;;;;;;8.07;2.25;;;;;;;;;;5033032;28;20026;-78
2022/10/05 09:16:27;;;;;;;6.75;2.63;;;;;;;;;;5033025;28;20495;-77
2022/10/05 09:19:04;;;;;;;3.90;1.90;;;;;;;;;;5015400;28;20041;-77
2022/10/05 09:21:40;;;;;;;6.15;2.25;;;;;;;;;;5032031;28;20076;-76
2022/10/05 09:24:22;;;;;;;4.50;2.10;;;;;;;;;;5014963;28;20207;-79
2022/10/05 09:27:13;;;;;;;4.25;2.05;;;;;;;;;;4999317;28;20037;-77
2022/10/05 09:29:50;;;;;;;9.63;2.28;;;;;;;;;;5015325;28;20021;-77
2022/10/05 09:32:34;;;;;;;7.18;2.38;;;;;;;;;;5032357;28;20025;-78
2022/10/05 09:35:30;;;;;;;4.13;2.00;;;;;;;;;;5015424;28;20025;-77
2022/10/05 09:38:14;;;;;;;6.47;2.08;;;;;;;;;;5031891;28;20049;-77
2022/10/05 09:41:17;;;;;;;3.28;1.88;;;;;;;;;;5015415;28;20043;-77
2022/10/05 09:43:51;;;;;;;2.15;1.55;;;;;;;;;;5014944;28;20099;-77
2022/10/05 09:46:35;;;;;;;6.40;2.10;;;;;;;;;;5031894;28;20037;-77
2022/10/05 09:49:16;;;;;;;3.63;2.05;;;;;;;;;;5015370;28;20029;-77
2022/10/05 09:51:54;;;;;;;7.95;2.00;;;;;;;;;;5014903;28;20485;-77
2022/10/05 09:54:46;;;;;;;6.57;1.95;;;;;;;;;;5033460;28;20025;-78
2022/10/05 09:57:14;;;;;;;2.85;1.88;;;;;;;;;;5032312;28;20032;-77
2022/10/05 10:00:11;;;;;;;3.20;2.10;;;;;;;;;;5015509;28;20034;-77
2022/10/05 10:03:04;;;;;;;4.18;1.80;;;;;;;;;;5013642;28;20120;-77
2022/10/05 10:05:32;;;;;;;3.78;1.80;;;;;;;;;;5013862;28;20038;-76
2022/10/05 10:08:03;;;;;;;3.13;2.00;;;;;;;;;;5020191;28;20105;-76
2022/10/05 10:10:37;;;;;;;2.85;1.90;;;;;;;;;;5033249;28;20017;-76
2022/10/05 10:13:19;;;;;;;11.77;2.50;;;;;;;;;;5033100;28;20036;-76
2022/10/05 10:15:57;;;;;;;5.28;1.90;;;;;;;;;;5015529;28;20024;-79
2022/10/05 10:18:47;;;;;;;3.80;2.30;;;;;;;;;;5033154;28;20044;-76
2022/10/05 10:21:50;;;;;;;8.40;2.30;;;;;;;;;;5032972;28;20040;-78
2022/10/05 10:24:21;;;;;;;4.07;2.30;;;;;;;;;;5032117;28;20040;-79
2022/10/05 10:27:01;;;;;;;5.18;2.40;;;;;;;;;;5032473;28;20472;-79
2022/10/05 10:29:44;;;;;;;3.70;2.22;;;;;;;;;;5015152;28;20028;-80
2022/10/05 10:32:47;;;;;;;6.50;2.17;;;;;;;;;;5032118;28;20029;-80
2022/10/05 10:35:18;;;;;;;5.25;2.20;;;;;;;;;;5054132;28;20052;-79
2022/10/05 10:37:57;;;;;;;5.40;2.20;;;;;;;;;;5057562;28;20063;-78
2022/10/05 10:40:23;;;;;;;4.60;1.90;;;;;;;;;;5057787;28;20357;-79
2022/10/05 10:43:12;;;;;;;4.60;2.05;;;;;;;;;;5056261;28;20569;-79
2022/10/05 10:45:58;;;;;;;5.40;2.35;;;;;;;;;;5055883;28;20129;-78
2022/10/05 10:48:27;;;;;;;2.72;2.28;;;;;;;;;;5040526;28;20071;-77
2022/10/05 10:51:04;;;;;;;9.45;2.20;;;;;;;;;;5056148;28;20037;-78
2022/10/05 10:54:03;;;;;;;13.38;2.33;;;;;;;;;;5057248;28;20025;-77
2022/10/05 10:56:49;;;;;;;8.30;2.13;;;;;;;;;;5057294;28;20529;-76
2022/10/05 10:59:42;;;;;;;11.43;2.25;;;;;;;;;;5055979;28;20060;-77
2022/10/05 11:02:45;;;;;;;11.18;2.33;;;;;;;;;;5055804;28;20024;-78
2022/10/05 11:05:13;;;;;;;19.50;2.40;;;;;;;;;;5055833;28;20402;-79
2022/10/05 11:08:14;;;;;;;6.03;2.45;;;;;;;;;;5057067;28;20029;-79
2022/10/05 11:11:28;;;;;;;2.70;1.98;;;;;;;;;;5055410;28;20029;-79
2022/10/05 11:14:25;;;;;;;5.28;2.25;;;;;;;;;;5037575;28;20520;-79
2022/10/05 11:17:17;;;;;;;4.72;1.95;;;;;;;;;;5038622;28;20083;-79
2022/10/05 11:20:01;;;;;;;3.40;2.15;;;;;;;;;;5055206;28;20372;-79
2022/10/05 11:22:43;;;;;;;8.05;2.15;;;;;;;;;;5055443;28;20162;-79
2022/10/05 11:25:20;;;;;;;3.67;2.10;;;;;;;;;;5055098;28;20021;-79
2022/10/05 11:28:17;;;;;;;2.30;1.80;;;;;;;;;;5055455;28;20025;-79
2022/10/05 11:31:20;;;;;;;3.33;2.03;;;;;;;;;;5038461;28;20032;-79
2022/10/05 11:34:28;;;;;;;9.15;2.10;;;;;;;;;;5056570;28;20029;-78
2022/10/05 11:37:07;;;;;;;3.83;1.92;;;;;;;;;;5056475;28;20040;-78
2022/10/05 11:39:43;;;;;;;4.07;2.10;;;;;;;;;;5055242;28;20029;-78
2022/10/05 11:42:38;;;;;;;3.45;2.08;;;;;;;;;;5038156;28;20025;-78
2022/10/05 11:45:14;;;;;;;2.97;1.83;;;;;;;;;;5053624;28;20041;-77
2022/10/05 11:48:00;;;;;;;3.70;1.90;;;;;;;;;;5055749;28;20033;-77
2022/10/05 11:51:01;;;;;;;6.05;1.83;;;;;;;;;;5056139;28;20025;-78
2022/10/05 11:53:38;;;;;;;5.60;1.90;;;;;;;;;;5036710;28;20045;-78
2022/10/05 11:56:06;;;;;;;4.47;2.00;;;;;;;;;;5054895;28;20029;-77
2022/10/05 11:58:57;;;;;;;2.65;1.90;;;;;;;;;;5055808;28;20177;-76
2022/10/05 12:01:33;;;;;;;4.35;1.90;;;;;;;;;;5055808;28;20029;-77
2022/10/05 12:04:04;;;;;;;5.68;1.88;;;;;;;;;;5054539;28;20464;-78
2022/10/05 12:06:36;;;;;;;3.95;1.52;;;;;;;;;;5054434;28;20426;-76
2022/10/05 12:09:05;;;;;;;4.90;1.98;;;;;;;;;;5054382;28;20384;-76
2022/10/05 12:12:09;;;;;;;4.80;1.92;;;;;;;;;;5055986;28;20479;-76
2022/10/05 12:14:56;;;;;;;2.20;1.60;;;;;;;;;;5033768;28;20033;-76
2022/10/05 12:17:36;;;;;;;3.40;2.08;;;;;;;;;;5017188;28;20044;-77
2022/10/05 12:20:10;;;;;;;3.50;2.08;;;;;;;;;;5016907;28;20033;-76
2022/10/05 12:22:38;;;;;;;5.18;1.75;;;;;;;;;;5017461;28;20124;-77
2022/10/05 12:25:05;;;;;;;4.28;1.90;;;;;;;;;;5017035;28;20124;-77
2022/10/05 12:27:36;;;;;;;3.47;1.88;;;;;;;;;;5016798;28;20404;-77
2022/10/05 12:30:13;;;;;;;5.82;2.05;;;;;;;;;;5016869;28;20538;-77
2022/10/05 12:32:52;;;;;;;3.88;1.92;;;;;;;;;;5017250;28;20073;-77
2022/10/05 12:35:34;;;;;;;4.63;1.80;;;;;;;;;;5017259;28;20096;-77
2022/10/05 12:38:23;;;;;;;3.92;1.70;;;;;;;;;;5017065;28;20045;-76
2022/10/05 12:40:54;;;;;;;4.72;1.90;;;;;;;;;;5033946;28;20032;-76
2022/10/05 12:43:31;;;;;;;5.40;1.70;;;;;;;;;;5017950;28;20145;-77
2022/10/05 12:46:08;;;;;;;3.75;1.58;;;;;;;;;;5045415;28;20475;-76
2022/10/05 12:48:51;;;;;;;3.78;1.80;;;;;;;;;;5055826;28;20471;-78
2022/10/05 12:51:35;;;;;;;4.10;1.80;;;;;;;;;;5055458;28;20488;-78
2022/10/05 12:54:09;;;;;;;3.92;1.80;;;;;;;;;;5055200;28;20025;-76
2022/10/05 12:56:54;;;;;;;4.80;1.73;;;;;;;;;;5053381;28;20029;-77
2022/10/05 12:59:38;;;;;;;5.38;1.80;;;;;;;;;;5054031;28;20032;-76
2022/10/05 13:02:04;;;;;;;4.60;1.60;;;;;;;;;;5054779;28;20021;-76
2022/10/05 13:04:37;;;;;;;4.60;1.77;;;;;;;;;;5054959;28;20468;-77
2022/10/05 13:07:26;;;;;;;4.45;1.60;;;;;;;;;;5054908;28;20100;-77
2022/10/05 13:10:15;;;;;;;2.65;1.65;;;;;;;;;;5053432;28;20052;-77
2022/10/05 13:12:52;;;;;;;3.60;1.80;;;;;;;;;;5036781;28;20391;-77
2022/10/05 13:15:39;;;;;;;6.18;1.88;;;;;;;;;;5055461;28;20408;-78
2022/10/05 13:18:32;;;;;;;2.65;1.50;;;;;;;;;;5037522;28;20384;-77
2022/10/05 13:21:15;;;;;;;2.55;1.65;;;;;;;;;;5055219;28;20128;-78
2022/10/05 13:24:04;;;;;;;3.60;1.92;;;;;;;;;;5037669;28;20467;-78
2022/10/05 13:26:34;;;;;;;6.55;1.92;;;;;;;;;;5054248;28;20107;-78
2022/10/05 13:29:02;;;;;;;2.45;1.80;;;;;;;;;;5054111;28;20190;-78
2022/10/05 13:31:31;;;;;;;3.97;1.80;;;;;;;;;;5054284;28;20025;-79
2022/10/05 13:34:05;;;;;;;4.93;2.10;;;;;;;;;;5037584;28;20021;-78
2022/10/05 13:36:30;;;;;;;;;;;;;;;;;;5037544;28;20036;-78
2022/10/05 13:39:17;;;;;;;6.60;1.83;;;;;;;;;;5055058;28;19908;-78
2022/10/05 13:41:53;;;;;;;5.20;1.90;;;;;;;;;;5053631;28;20043;-78
2022/10/05 13:44:36;;;;;;;7.47;1.80;;;;;;;;;;5055254;28;20044;-78
2022/10/05 13:47:33;;;;;;;9.65;1.60;;;;;;;;;;5053882;28;20045;-78
2022/10/05 13:50:04;;;;;;;2.92;1.80;;;;;;;;;;5036706;28;20505;-77
2022/10/05 13:52:59;;;;;;;3.40;1.63;;;;;;;;;;5037679;28;20141;-78
2022/10/05 13:55:39;;;;;;;4.35;1.90;;;;;;;;;;5052577;28;20087;-77
2022/10/05 13:58:30;;;;;;;5.57;1.77;;;;;;;;;;5036230;28;20017;-78
2022/10/05 14:00:59;;;;;;;2.97;1.70;;;;;;;;;;5052995;28;20028;-78
2022/10/05 14:03:28;;;;;;;2.75;1.92;;;;;;;;;;5053271;28;20020;-78
2022/10/05 14:05:59;;;;;;;2.83;1.80;;;;;;;;;;5036504;28;20056;-78
2022/10/05 14:08:41;;;;;;;3.30;1.83;;;;;;;;;;5035988;28;20116;-78
2022/10/05 14:11:32;;;;;;;3.47;1.65;;;;;;;;;;5052760;28;20400;-77
2022/10/05 14:14:01;;;;;;;2.95;1.95;;;;;;;;;;5053298;28;20081;-77
2022/10/05 14:16:27;;;;;;;2.63;1.63;;;;;;;;;;5052376;28;20025;-78
2022/10/05 14:19:05;;;;;;;3.30;1.80;;;;;;;;;;5053808;28;20029;-77
2022/10/05 14:21:32;;;;;;;2.85;1.55;;;;;;;;;;5052917;28;20028;-78
2022/10/05 14:24:21;;;;;;;3.45;1.70;;;;;;;;;;5053336;28;20396;-78
2022/10/05 14:26:51;;;;;;;6.20;1.85;;;;;;;;;;5053523;28;20031;-77
2022/10/05 14:29:19;;;;;;;8.70;1.95;;;;;;;;;;5053416;28;20484;-77
2022/10/05 14:31:57;;;;;;;4.10;1.73;;;;;;;;;;5053224;28;20025;-78
2022/10/05 14:34:40;;;;;;;2.08;1.50;;;;;;;;;;5053113;28;20028;-78
2022/10/05 14:37:19;;;;;;;2.67;1.73;;;;;;;;;;5052866;28;20025;-78
2022/10/05 14:39:46;;;;;;;4.20;1.70;;;;;;;;;;5053669;28;20048;-78
2022/10/05 14:42:14;;;;;;;5.38;1.85;;;;;;;;;;5035807;28;20037;-78
2022/10/05 14:44:40;;;;;;;4.95;1.77;;;;;;;;;;5052349;28;20048;-78
2022/10/05 14:47:22;;;;;;;2.97;1.92;;;;;;;;;;5054359;28;20041;-79
2022/10/05 14:50:09;;;;;;;2.92;1.70;;;;;;;;;;5052936;28;20025;-78
2022/10/05 14:52:36;;;;;;;4.82;1.83;;;;;;;;;;5038558;28;20037;-78
2022/10/05 14:55:22;;;;;;;4.03;1.58;;;;;;;;;;5053601;28;20106;-78
2022/10/05 14:58:01;;;;;;;3.78;1.60;;;;;;;;;;5052406;28;20023;-77
2022/10/05 15:00:27;;;;;;;2.47;1.67;;;;;;;;;;5051712;28;20051;-79
2022/10/05 15:03:44;;;;;;;2.75;1.50;;;;;;;;;;5051998;28;20021;-79
2022/10/05 15:06:37;;;;;;;6.75;1.60;;;;;;;;;;5031052;28;20430;-79
2022/10/05 15:09:33;;;;;;;3.53;2.00;;;;;;;;;;5014584;28;20033;-78
2022/10/05 15:12:00;;;;;;;3.15;1.77;;;;;;;;;;5012478;28;20050;-78
2022/10/05 15:14:38;;;;;;;5.40;1.83;;;;;;;;;;5015046;28;20042;-78
2022/10/05 15:17:18;;;;;;;4.10;1.80;;;;;;;;;;5014511;28;20104;-78
2022/10/05 15:20:12;;;;;;;12.35;2.03;;;;;;;;;;5014602;28;20104;-78
2022/10/05 15:23:12;;;;;;;3.03;1.70;;;;;;;;;;5017500;28;20030;-78
2022/10/05 15:25:49;;;;;;;4.40;1.70;;;;;;;;;;5025702;28;20038;-77
2022/10/05 15:28:24;;;;;;;4.40;1.60;;;;;;;;;;5018331;28;20046;-80
2022/10/05 15:31:00;;;;;;;3.40;1.88;;;;;;;;;;5018078;28;20036;-80
2022/10/05 15:33:57;;;;;;;4.13;1.80;;;;;;;;;;5001665;28;20033;-79
2022/10/05 15:36:41;;;;;;;3.00;2.42;;;;;;;;;;4998452;28;20083;-79
2022/10/05 15:39:26;;;;;;;6.33;1.80;;;;;;;;;;5036549;28;20523;-79
2022/10/05 15:41:59;;;;;;;5.18;1.80;;;;;;;;;;5056128;28;20475;-79
2022/10/05 15:44:35;;;;;;;5.50;1.90;;;;;;;;;;5038138;28;20071;-79
2022/10/05 15:47:22;;;;;;;3.65;1.88;;;;;;;;;;5054923;28;20339;-79
2022/10/05 15:49:59;;;;;;;6.50;1.80;;;;;;;;;;5056296;28;20055;-78
2022/10/05 15:52:37;;;;;;;4.47;1.80;;;;;;;;;;5054816;28;20048;-79
2022/10/05 15:55:21;;;;;;;5.22;1.65;;;;;;;;;;5054783;28;20021;-78
2022/10/05 15:58:07;;;;;;;4.15;1.85;;;;;;;;;;5054706;28;20071;-78
2022/10/05 16:00:41;;;;;;;6.70;1.67;;;;;;;;;;5055789;28;20036;-79
2022/10/05 16:03:25;;;;;;;4.28;1.90;;;;;;;;;;5054862;28;20060;-79
2022/10/05 16:08:54;;;;;;;2.10;1.63;;;;;;;;;;5054966;28;20380;-78
2022/10/05 16:11:25;;;;;;;3.50;1.73;;;;;;;;;;5055908;28;20108;-78